Fairburn, SD (57738)

1:38 PM MDT on July 23, 2014 (GMT -0600)
Mike's Place Black Hills (KSDHERMO3) Elev 4009 ft | 43.83 °N, 103.31 °W | Change Station

Current weather conditions updated 2 minutes ago

Clear
Clear
78.5 °F
Feels Like 80 °F
N
3.0
Wind Variable Wind from SW
Gusts 13.0 mph

Today is forecast to be Much Warmer than yesterday.

Today
High -- | Low -- °F
--% Chance of Precip.
Yesterday
High -- | Low -- °F
Precip. -- in
5:32 AM 8:25 PM
Waning Crescent, 9% visible
Pressure 30.14 in
Visibility 10.0 miles
Clouds Clear
Heat Index 80 °F
Dew Point 64 °F
Humidity 61%
Rainfall 0.50 in
Snow Depth Not available.
UV 12 out of 12
Pollen 6.40 out of 12
Air Quality Not available.
Flu Activity Not available.
METAR KCUT 231853Z AUTO 17010G18KT 130V190 10SM CLR 26/14 A3035 RMK AO2 SLP206 T02560139

More Conditions Fewer Conditions

Pressure 30.14 in
Visibility 10.0 miles
Clouds Clear
Heat Index 80 °F
Dew Point 64 °F
Humidity 61%
Rainfall 0.50 in
Snow Depth Not available.
UV 12 out of 12
Pollen 6.40 out of 12
Air Quality Not available.
Flu Activity Not available.
METAR KCUT 231853Z AUTO 17010G18KT 130V190 10SM CLR 26/14 A3035 RMK AO2 SLP206 T02560139

More Conditions Fewer Conditions

10-Day Weather Forecast

Almanac

Astronomy

Jul. 23, 2014 Rise Set
Actual Time 5:32 AM MDT 8:25 PM MDT
Civil Twilight 4:58 AM MDT 8:59 PM MDT
Nautical Twilight 4:16 AM MDT 9:41 PM MDT
Astronomical Twilight 3:25 AM MDT 10:31 PM MDT
Moon 2:54 AM MDT 5:55 PM MDT
Length of Visible Light 16h 00m
Length of Day
14h 52m
Tomorrow will be 1m 58s shorter.
Waning Crescent, 9% of the Moon is Illuminated
Today
Waning Crescent
Jul 26
New
Aug 3
First Quarter
Aug 10
Full
Aug 17
Last Quarter

Today's Extremes

State Highs State Lows

Community

WunderPhotos

Upload Photos

1,736,734 photos uploaded!

Nearby

Snow Depth

Station Depth Elevation
Blind Park 0 in 6890 ft

Earthquake Activity

City Distance Mag. Time & Date
No recent earthquake activity has been reported nearby.
Minimum magnitude displayed is 2.5.

Coastal Water Temperatures

Place Temperature
No Stations Reporting

Nearby Weather Stations

Station Location Temp. Heat Index Dew Point Humidity Wind Precip. Elev Updated Type
HADS BEAVER CREEK NEAR BUFFALO GAP 2S SD, Buffalo Gap, SD 84 °F 81 °F - - North  at  - 0.00 in / hr 3149 ft 12:45 PM MDT MADIS
Mike's Place Black Hills, Hermosa, SD 78.5 °F 80 °F 64 °F 61% SW  at  3.0 mph 0.00 in / hr 4009 ft 1:36 PM MDT Normal
Spring Creek Acres, Hermosa, SD 79.0 °F 82 °F 69 °F 72% SE  at  16.0 mph 0.00 in / hr 3450 ft 1:38 PM MDT Rapid Fire
RAWS BAKER PARK SD, Keystone, SD 83 °F 84 °F 62 °F 49% SSE  at  7 mph 0.00 in / hr 4673 ft 12:35 PM MDT MADIS
RAWS CUSTER SD, Custer, SD 76 °F 78 °F 59 °F 56% SSE  at  9 mph 0.00 in / hr 5820 ft 12:24 PM MDT MADIS

Show More Stations Show Fewer Stations